sensor_id;sensor_type;location;lat;lon;timestamp;P1;durP1;ratioP1;P2;durP2;ratioP2
22176;SDS011;11254;50.098;8.726;2023-05-08T03:34:12;11.15;;;7.53;;
22176;SDS011;11254;50.098;8.726;2023-05-08T03:36:40;11.82;;;7.72;;
22176;SDS011;11254;50.098;8.726;2023-05-08T03:39:09;11.32;;;7.65;;
22176;SDS011;11254;50.098;8.726;2023-05-08T03:41:39;11.40;;;7.45;;
22176;SDS011;11254;50.098;8.726;2023-05-08T03:44:07;12.48;;;8.27;;
22176;SDS011;11254;50.098;8.726;2023-05-08T03:46:36;11.25;;;7.40;;
22176;SDS011;11254;50.098;8.726;2023-05-08T03:49:05;12.50;;;8.15;;
22176;SDS011;11254;50.098;8.726;2023-05-08T03:51:38;12.32;;;7.90;;
22176;SDS011;11254;50.098;8.726;2023-05-08T03:54:06;13.25;;;8.38;;
22176;SDS011;11254;50.098;8.726;2023-05-08T03:56:35;14.88;;;9.38;;
22176;SDS011;11254;50.098;8.726;2023-05-08T03:59:06;11.70;;;8.02;;
22176;SDS011;11254;50.098;8.726;2023-05-08T04:01:37;12.95;;;7.90;;
22176;SDS011;11254;50.098;8.726;2023-05-08T04:04:10;12.98;;;8.13;;
22176;SDS011;11254;50.098;8.726;2023-05-08T04:06:45;13.07;;;8.27;;
22176;SDS011;11254;50.098;8.726;2023-05-08T04:09:27;11.93;;;8.13;;
22176;SDS011;11254;50.098;8.726;2023-05-08T04:11:59;15.73;;;8.70;;
22176;SDS011;11254;50.098;8.726;2023-05-08T04:14:30;12.30;;;8.85;;
22176;SDS011;11254;50.098;8.726;2023-05-08T04:17:02;13.40;;;7.95;;
22176;SDS011;11254;50.098;8.726;2023-05-08T04:19:32;11.77;;;7.43;;
22176;SDS011;11254;50.098;8.726;2023-05-08T04:22:04;12.05;;;7.88;;
22176;SDS011;11254;50.098;8.726;2023-05-08T04:24:36;12.18;;;7.57;;
22176;SDS011;11254;50.098;8.726;2023-05-08T04:27:07;13.48;;;7.43;;
22176;SDS011;11254;50.098;8.726;2023-05-08T04:29:36;12.73;;;8.35;;
22176;SDS011;11254;50.098;8.726;2023-05-08T04:32:05;11.98;;;8.07;;
22176;SDS011;11254;50.098;8.726;2023-05-08T04:34:34;12.07;;;7.82;;
22176;SDS011;11254;50.098;8.726;2023-05-08T04:37:06;11.98;;;8.40;;
22176;SDS011;11254;50.098;8.726;2023-05-08T04:39:35;12.02;;;8.25;;
22176;SDS011;11254;50.098;8.726;2023-05-08T04:42:03;13.52;;;8.63;;
22176;SDS011;11254;50.098;8.726;2023-05-08T04:44:33;13.27;;;8.75;;
22176;SDS011;11254;50.098;8.726;2023-05-08T04:47:02;13.43;;;9.20;;
22176;SDS011;11254;50.098;8.726;2023-05-08T04:49:30;13.43;;;8.77;;
22176;SDS011;11254;50.098;8.726;2023-05-08T04:51:59;12.43;;;7.60;;
22176;SDS011;11254;50.098;8.726;2023-05-08T04:54:29;13.85;;;8.15;;
22176;SDS011;11254;50.098;8.726;2023-05-08T04:56:57;15.68;;;9.00;;
22176;SDS011;11254;50.098;8.726;2023-05-08T04:59:26;13.93;;;9.23;;
22176;SDS011;11254;50.098;8.726;2023-05-08T05:01:55;13.32;;;9.25;;
22176;SDS011;11254;50.098;8.726;2023-05-08T05:04:23;14.82;;;8.85;;
22176;SDS011;11254;50.098;8.726;2023-05-08T05:06:54;12.82;;;8.40;;
22176;SDS011;11254;50.098;8.726;2023-05-08T05:09:22;16.17;;;9.60;;
22176;SDS011;11254;50.098;8.726;2023-05-08T05:11:52;12.68;;;8.15;;
22176;SDS011;11254;50.098;8.726;2023-05-08T05:14:23;13.45;;;8.70;;
22176;SDS011;11254;50.098;8.726;2023-05-08T05:16:52;13.13;;;8.48;;
22176;SDS011;11254;50.098;8.726;2023-05-08T05:19:20;12.43;;;8.20;;
22176;SDS011;11254;50.098;8.726;2023-05-08T05:21:49;13.70;;;7.57;;
22176;SDS011;11254;50.098;8.726;2023-05-08T05:24:18;12.55;;;8.20;;
22176;SDS011;11254;50.098;8.726;2023-05-08T05:26:46;12.55;;;7.93;;
22176;SDS011;11254;50.098;8.726;2023-05-08T05:29:16;14.80;;;8.63;;
22176;SDS011;11254;50.098;8.726;2023-05-08T05:31:44;15.02;;;8.90;;
22176;SDS011;11254;50.098;8.726;2023-05-08T05:34:13;13.57;;;8.50;;
22176;SDS011;11254;50.098;8.726;2023-05-08T05:36:41;13.55;;;8.52;;
22176;SDS011;11254;50.098;8.726;2023-05-08T05:39:10;14.60;;;9.25;;
22176;SDS011;11254;50.098;8.726;2023-05-08T05:41:39;15.05;;;9.45;;
22176;SDS011;11254;50.098;8.726;2023-05-08T05:44:10;15.90;;;8.73;;
22176;SDS011;11254;50.098;8.726;2023-05-08T05:46:40;14.25;;;9.27;;
22176;SDS011;11254;50.098;8.726;2023-05-08T05:49:10;14.45;;;9.23;;
22176;SDS011;11254;50.098;8.726;2023-05-08T05:51:39;14.80;;;8.88;;
22176;SDS011;11254;50.098;8.726;2023-05-08T05:54:07;12.98;;;8.75;;
22176;SDS011;11254;50.098;8.726;2023-05-08T05:56:36;15.68;;;9.05;;
22176;SDS011;11254;50.098;8.726;2023-05-08T05:59:04;13.25;;;9.05;;
22176;SDS011;11254;50.098;8.726;2023-05-08T06:01:33;13.98;;;8.75;;
22176;SDS011;11254;50.098;8.726;2023-05-08T06:04:03;13.63;;;8.88;;
22176;SDS011;11254;50.098;8.726;2023-05-08T06:06:32;13.85;;;9.07;;
22176;SDS011;11254;50.098;8.726;2023-05-08T06:09:01;15.18;;;9.02;;
22176;SDS011;11254;50.098;8.726;2023-05-08T06:11:29;13.10;;;9.13;;
22176;SDS011;11254;50.098;8.726;2023-05-08T06:13:58;14.95;;;9.25;;
22176;SDS011;11254;50.098;8.726;2023-05-08T06:16:27;15.13;;;9.48;;
22176;SDS011;11254;50.098;8.726;2023-05-08T06:18:55;16.42;;;8.90;;
22176;SDS011;11254;50.098;8.726;2023-05-08T06:21:25;16.55;;;9.48;;
22176;SDS011;11254;50.098;8.726;2023-05-08T06:23:54;15.07;;;9.52;;
22176;SDS011;11254;50.098;8.726;2023-05-08T06:26:23;16.35;;;9.20;;
22176;SDS011;11254;50.098;8.726;2023-05-08T06:28:51;15.25;;;9.55;;
22176;SDS011;11254;50.098;8.726;2023-05-08T06:31:19;15.75;;;9.90;;
22176;SDS011;11254;50.098;8.726;2023-05-08T06:33:48;15.32;;;10.15;;
22176;SDS011;11254;50.098;8.726;2023-05-08T06:36:16;13.57;;;8.85;;
22176;SDS011;11254;50.098;8.726;2023-05-08T06:38:46;15.32;;;9.23;;
22176;SDS011;11254;50.098;8.726;2023-05-08T06:41:14;13.50;;;8.75;;
22176;SDS011;11254;50.098;8.726;2023-05-08T06:43:43;16.85;;;9.43;;
22176;SDS011;11254;50.098;8.726;2023-05-08T06:46:11;16.85;;;10.35;;
22176;SDS011;11254;50.098;8.726;2023-05-08T06:48:39;14.85;;;9.63;;
22176;SDS011;11254;50.098;8.726;2023-05-08T06:51:08;18.48;;;9.75;;
22176;SDS011;11254;50.098;8.726;2023-05-08T06:53:36;14.35;;;9.13;;
22176;SDS011;11254;50.098;8.726;2023-05-08T06:56:06;15.95;;;9.07;;
22176;SDS011;11254;50.098;8.726;2023-05-08T06:58:34;13.98;;;8.73;;
22176;SDS011;11254;50.098;8.726;2023-05-08T07:01:03;14.80;;;9.07;;
22176;SDS011;11254;50.098;8.726;2023-05-08T07:03:34;14.15;;;9.13;;
22176;SDS011;11254;50.098;8.726;2023-05-08T07:06:13;13.30;;;8.68;;
22176;SDS011;11254;50.098;8.726;2023-05-08T07:08:45;13.88;;;8.50;;
22176;SDS011;11254;50.098;8.726;2023-05-08T07:11:19;15.55;;;8.63;;
22176;SDS011;11254;50.098;8.726;2023-05-08T07:13:49;14.55;;;8.77;;
22176;SDS011;11254;50.098;8.726;2023-05-08T07:16:21;14.00;;;9.23;;
22176;SDS011;11254;50.098;8.726;2023-05-08T07:18:58;13.73;;;8.98;;
22176;SDS011;11254;50.098;8.726;2023-05-08T07:21:28;15.80;;;9.23;;
22176;SDS011;11254;50.098;8.726;2023-05-08T07:23:57;16.08;;;9.45;;
22176;SDS011;11254;50.098;8.726;2023-05-08T07:26:27;13.18;;;8.60;;
22176;SDS011;11254;50.098;8.726;2023-05-08T07:28:55;16.13;;;9.50;;
22176;SDS011;11254;50.098;8.726;2023-05-08T07:31:24;15.65;;;8.65;;
22176;SDS011;11254;50.098;8.726;2023-05-08T07:33:52;12.75;;;8.75;;
22176;SDS011;11254;50.098;8.726;2023-05-08T07:36:20;13.98;;;8.88;;
22176;SDS011;11254;50.098;8.726;2023-05-08T07:38:49;17.73;;;9.07;;
22176;SDS011;11254;50.098;8.726;2023-05-08T07:41:17;13.40;;;8.45;;
22176;SDS011;11254;50.098;8.726;2023-05-08T07:43:47;13.13;;;8.57;;
22176;SDS011;11254;50.098;8.726;2023-05-08T07:46:15;17.52;;;9.20;;
22176;SDS011;11254;50.098;8.726;2023-05-08T07:48:44;15.80;;;9.43;;
22176;SDS011;11254;50.098;8.726;2023-05-08T07:51:13;13.85;;;8.98;;
22176;SDS011;11254;50.098;8.726;2023-05-08T07:53:41;14.15;;;9.35;;
22176;SDS011;11254;50.098;8.726;2023-05-08T07:56:09;13.27;;;8.73;;
22176;SDS011;11254;50.098;8.726;2023-05-08T07:58:38;11.40;;;7.45;;
22176;SDS011;11254;50.098;8.726;2023-05-08T08:01:09;11.50;;;7.93;;
22176;SDS011;11254;50.098;8.726;2023-05-08T08:03:38;14.18;;;7.88;;
22176;SDS011;11254;50.098;8.726;2023-05-08T08:06:12;12.65;;;8.02;;
22176;SDS011;11254;50.098;8.726;2023-05-08T08:08:41;12.95;;;8.30;;
22176;SDS011;11254;50.098;8.726;2023-05-08T08:11:14;14.15;;;8.30;;
22176;SDS011;11254;50.098;8.726;2023-05-08T08:13:42;13.60;;;8.57;;
22176;SDS011;11254;50.098;8.726;2023-05-08T08:16:18;11.13;;;7.70;;
22176;SDS011;11254;50.098;8.726;2023-05-08T08:18:47;12.77;;;8.10;;
22176;SDS011;11254;50.098;8.726;2023-05-08T08:21:18;13.23;;;8.68;;
22176;SDS011;11254;50.098;8.726;2023-05-08T08:23:47;12.25;;;8.27;;
22176;SDS011;11254;50.098;8.726;2023-05-08T08:26:15;12.90;;;8.40;;
22176;SDS011;11254;50.098;8.726;2023-05-08T08:28:43;11.85;;;7.88;;
22176;SDS011;11254;50.098;8.726;2023-05-08T08:31:12;12.77;;;8.25;;
22176;SDS011;11254;50.098;8.726;2023-05-08T08:33:43;15.73;;;8.63;;
22176;SDS011;11254;50.098;8.726;2023-05-08T08:36:12;13.05;;;8.10;;
22176;SDS011;11254;50.098;8.726;2023-05-08T08:38:40;12.25;;;8.20;;
22176;SDS011;11254;50.098;8.726;2023-05-08T08:41:10;15.52;;;8.77;;
22176;SDS011;11254;50.098;8.726;2023-05-08T08:43:40;14.60;;;8.40;;
22176;SDS011;11254;50.098;8.726;2023-05-08T08:46:09;12.77;;;8.45;;
22176;SDS011;11254;50.098;8.726;2023-05-08T08:48:41;14.02;;;9.10;;
22176;SDS011;11254;50.098;8.726;2023-05-08T08:51:13;16.90;;;9.50;;
22176;SDS011;11254;50.098;8.726;2023-05-08T08:53:42;14.68;;;8.90;;
22176;SDS011;11254;50.098;8.726;2023-05-08T08:56:11;14.05;;;8.73;;
22176;SDS011;11254;50.098;8.726;2023-05-08T08:58:43;15.77;;;9.70;;
22176;SDS011;11254;50.098;8.726;2023-05-08T09:01:18;13.48;;;8.55;;
22176;SDS011;11254;50.098;8.726;2023-05-08T09:03:48;14.27;;;9.13;;
22176;SDS011;11254;50.098;8.726;2023-05-08T09:06:21;13.60;;;9.30;;
22176;SDS011;11254;50.098;8.726;2023-05-08T09:08:50;13.48;;;8.90;;
22176;SDS011;11254;50.098;8.726;2023-05-08T09:11:22;14.60;;;9.55;;
22176;SDS011;11254;50.098;8.726;2023-05-08T09:13:51;14.88;;;9.05;;
22176;SDS011;11254;50.098;8.726;2023-05-08T09:16:22;14.32;;;9.57;;
22176;SDS011;11254;50.098;8.726;2023-05-08T09:18:50;14.05;;;8.52;;
22176;SDS011;11254;50.098;8.726;2023-05-08T09:21:20;13.27;;;8.85;;
22176;SDS011;11254;50.098;8.726;2023-05-08T09:23:56;16.08;;;9.95;;
22176;SDS011;11254;50.098;8.726;2023-05-08T09:26:34;15.45;;;9.27;;
22176;SDS011;11254;50.098;8.726;2023-05-08T09:29:10;13.95;;;8.90;;
22176;SDS011;11254;50.098;8.726;2023-05-08T09:31:40;13.55;;;9.65;;
22176;SDS011;11254;50.098;8.726;2023-05-08T09:34:10;13.40;;;9.07;;
22176;SDS011;11254;50.098;8.726;2023-05-08T09:36:40;15.32;;;9.50;;
22176;SDS011;11254;50.098;8.726;2023-05-08T09:39:09;13.93;;;9.23;;
22176;SDS011;11254;50.098;8.726;2023-05-08T09:41:38;14.30;;;9.13;;
22176;SDS011;11254;50.098;8.726;2023-05-08T09:44:07;14.35;;;8.98;;
22176;SDS011;11254;50.098;8.726;2023-05-08T09:46:35;13.48;;;9.32;;
22176;SDS011;11254;50.098;8.726;2023-05-08T09:49:03;14.15;;;9.40;;
22176;SDS011;11254;50.098;8.726;2023-05-08T09:51:32;13.20;;;8.98;;
22176;SDS011;11254;50.098;8.726;2023-05-08T09:54:02;15.35;;;9.20;;
22176;SDS011;11254;50.098;8.726;2023-05-08T09:56:32;17.10;;;9.35;;
22176;SDS011;11254;50.098;8.726;2023-05-08T09:59:02;13.48;;;9.10;;
22176;SDS011;11254;50.098;8.726;2023-05-08T10:01:32;15.20;;;9.02;;
22176;SDS011;11254;50.098;8.726;2023-05-08T10:04:02;14.45;;;8.90;;
22176;SDS011;11254;50.098;8.726;2023-05-08T10:06:31;16.30;;;10.02;;
22176;SDS011;11254;50.098;8.726;2023-05-08T10:09:06;15.30;;;10.02;;
22176;SDS011;11254;50.098;8.726;2023-05-08T10:11:35;15.07;;;9.43;;
22176;SDS011;11254;50.098;8.726;2023-05-08T10:14:04;16.40;;;10.45;;
22176;SDS011;11254;50.098;8.726;2023-05-08T10:16:35;13.63;;;9.40;;
22176;SDS011;11254;50.098;8.726;2023-05-08T10:19:04;14.32;;;9.52;;
22176;SDS011;11254;50.098;8.726;2023-05-08T10:21:36;15.35;;;10.00;;
22176;SDS011;11254;50.098;8.726;2023-05-08T10:24:06;13.90;;;9.23;;
22176;SDS011;11254;50.098;8.726;2023-05-08T10:26:38;14.43;;;9.73;;
22176;SDS011;11254;50.098;8.726;2023-05-08T10:29:31;14.30;;;8.95;;
22176;SDS011;11254;50.098;8.726;2023-05-08T10:31:59;12.88;;;9.00;;
22176;SDS011;11254;50.098;8.726;2023-05-08T10:34:30;15.45;;;9.07;;
22176;SDS011;11254;50.098;8.726;2023-05-08T10:36:59;12.85;;;8.45;;
22176;SDS011;11254;50.098;8.726;2023-05-08T10:39:29;13.77;;;8.32;;
22176;SDS011;11254;50.098;8.726;2023-05-08T10:41:57;13.15;;;7.78;;
22176;SDS011;11254;50.098;8.726;2023-05-08T10:44:26;11.65;;;7.70;;
22176;SDS011;11254;50.098;8.726;2023-05-08T10:46:56;11.45;;;7.47;;
22176;SDS011;11254;50.098;8.726;2023-05-08T10:49:30;11.57;;;7.50;;
22176;SDS011;11254;50.098;8.726;2023-05-08T10:52:09;11.88;;;7.88;;
22176;SDS011;11254;50.098;8.726;2023-05-08T10:54:46;11.85;;;7.32;;
22176;SDS011;11254;50.098;8.726;2023-05-08T10:57:15;11.68;;;7.40;;
22176;SDS011;11254;50.098;8.726;2023-05-08T10:59:44;11.43;;;7.47;;
22176;SDS011;11254;50.098;8.726;2023-05-08T11:02:13;12.70;;;7.38;;
22176;SDS011;11254;50.098;8.726;2023-05-08T11:04:42;10.50;;;7.78;;
22176;SDS011;11254;50.098;8.726;2023-05-08T11:07:10;11.73;;;7.63;;
22176;SDS011;11254;50.098;8.726;2023-05-08T11:09:46;12.13;;;7.82;;
22176;SDS011;11254;50.098;8.726;2023-05-08T11:12:17;13.82;;;8.20;;
22176;SDS011;11254;50.098;8.726;2023-05-08T11:14:56;13.60;;;8.60;;
22176;SDS011;11254;50.098;8.726;2023-05-08T11:17:25;13.68;;;8.05;;
22176;SDS011;11254;50.098;8.726;2023-05-08T11:19:55;12.45;;;7.80;;
22176;SDS011;11254;50.098;8.726;2023-05-08T11:22:24;13.10;;;8.68;;
22176;SDS011;11254;50.098;8.726;2023-05-08T11:24:59;12.02;;;7.57;;
22176;SDS011;11254;50.098;8.726;2023-05-08T11:27:30;13.32;;;8.20;;
22176;SDS011;11254;50.098;8.726;2023-05-08T11:35:53;11.40;;;7.63;;
22176;SDS011;11254;50.098;8.726;2023-05-08T11:38:23;12.60;;;8.48;;
22176;SDS011;11254;50.098;8.726;2023-05-08T11:40:57;12.55;;;8.30;;
22176;SDS011;11254;50.098;8.726;2023-05-08T11:43:30;12.73;;;8.90;;
22176;SDS011;11254;50.098;8.726;2023-05-08T11:46:02;13.48;;;8.32;;
22176;SDS011;11254;50.098;8.726;2023-05-08T11:48:31;11.40;;;7.28;;
22176;SDS011;11254;50.098;8.726;2023-05-08T11:51:00;11.85;;;8.48;;
22176;SDS011;11254;50.098;8.726;2023-05-08T11:53:30;12.23;;;8.35;;
22176;SDS011;11254;50.098;8.726;2023-05-08T11:55:59;12.40;;;8.10;;
22176;SDS011;11254;50.098;8.726;2023-05-08T11:58:28;13.27;;;8.85;;
22176;SDS011;11254;50.098;8.726;2023-05-08T12:00:56;12.32;;;8.38;;
22176;SDS011;11254;50.098;8.726;2023-05-08T12:03:25;12.82;;;8.18;;
22176;SDS011;11254;50.098;8.726;2023-05-08T12:05:54;13.10;;;7.82;;
22176;SDS011;11254;50.098;8.726;2023-05-08T12:08:22;13.55;;;9.10;;
22176;SDS011;11254;50.098;8.726;2023-05-08T12:10:51;13.00;;;8.55;;
22176;SDS011;11254;50.098;8.726;2023-05-08T12:13:22;13.48;;;9.13;;
22176;SDS011;11254;50.098;8.726;2023-05-08T12:15:51;15.25;;;9.48;;
22176;SDS011;11254;50.098;8.726;2023-05-08T12:18:20;16.60;;;9.15;;
22176;SDS011;11254;50.098;8.726;2023-05-08T12:20:52;12.23;;;8.90;;
22176;SDS011;11254;50.098;8.726;2023-05-08T12:23:22;14.75;;;9.20;;
22176;SDS011;11254;50.098;8.726;2023-05-08T12:25:50;14.52;;;9.07;;
22176;SDS011;11254;50.098;8.726;2023-05-08T12:28:22;12.40;;;8.93;;
22176;SDS011;11254;50.098;8.726;2023-05-08T12:30:51;11.05;;;8.27;;
22176;SDS011;11254;50.098;8.726;2023-05-08T12:33:19;12.65;;;8.57;;
22176;SDS011;11254;50.098;8.726;2023-05-08T12:35:48;15.85;;;9.10;;
22176;SDS011;11254;50.098;8.726;2023-05-08T12:38:16;13.82;;;9.82;;
22176;SDS011;11254;50.098;8.726;2023-05-08T12:40:45;12.35;;;8.93;;
22176;SDS011;11254;50.098;8.726;2023-05-08T12:43:18;12.55;;;8.30;;
22176;SDS011;11254;50.098;8.726;2023-05-08T12:45:49;13.32;;;9.60;;
22176;SDS011;11254;50.098;8.726;2023-05-08T12:48:18;13.15;;;8.93;;
22176;SDS011;11254;50.098;8.726;2023-05-08T12:50:47;13.27;;;9.00;;
22176;SDS011;11254;50.098;8.726;2023-05-08T12:53:16;12.93;;;9.38;;
22176;SDS011;11254;50.098;8.726;2023-05-08T12:55:49;11.73;;;8.70;;
22176;SDS011;11254;50.098;8.726;2023-05-08T12:58:19;12.00;;;7.80;;
22176;SDS011;11254;50.098;8.726;2023-05-08T13:00:49;14.60;;;9.15;;
22176;SDS011;11254;50.098;8.726;2023-05-08T13:03:22;13.88;;;9.38;;
22176;SDS011;11254;50.098;8.726;2023-05-08T13:05:52;13.57;;;9.30;;
22176;SDS011;11254;50.098;8.726;2023-05-08T13:08:27;14.57;;;9.10;;
22176;SDS011;11254;50.098;8.726;2023-05-08T13:10:56;13.65;;;8.88;;
22176;SDS011;11254;50.098;8.726;2023-05-08T13:13:24;14.20;;;9.60;;
22176;SDS011;11254;50.098;8.726;2023-05-08T13:15:55;13.63;;;9.60;;
22176;SDS011;11254;50.098;8.726;2023-05-08T13:18:24;13.77;;;9.40;;
22176;SDS011;11254;50.098;8.726;2023-05-08T13:20:53;12.00;;;8.48;;
22176;SDS011;11254;50.098;8.726;2023-05-08T13:23:21;15.32;;;9.25;;
22176;SDS011;11254;50.098;8.726;2023-05-08T13:25:50;15.60;;;9.40;;
22176;SDS011;11254;50.098;8.726;2023-05-08T13:28:18;17.00;;;9.45;;
22176;SDS011;11254;50.098;8.726;2023-05-08T13:30:46;16.90;;;9.48;;
22176;SDS011;11254;50.098;8.726;2023-05-08T13:33:16;14.13;;;8.95;;
22176;SDS011;11254;50.098;8.726;2023-05-08T13:35:45;12.90;;;8.32;;
22176;SDS011;11254;50.098;8.726;2023-05-08T13:38:13;13.80;;;9.57;;
22176;SDS011;11254;50.098;8.726;2023-05-08T13:40:42;14.32;;;8.80;;
22176;SDS011;11254;50.098;8.726;2023-05-08T13:43:11;10.93;;;8.25;;
22176;SDS011;11254;50.098;8.726;2023-05-08T13:45:39;10.82;;;7.50;;
22176;SDS011;11254;50.098;8.726;2023-05-08T13:48:10;10.90;;;7.50;;
22176;SDS011;11254;50.098;8.726;2023-05-08T13:50:40;11.27;;;7.55;;
22176;SDS011;11254;50.098;8.726;2023-05-08T13:53:08;11.48;;;8.70;;
22176;SDS011;11254;50.098;8.726;2023-05-08T13:55:36;12.98;;;8.45;;
22176;SDS011;11254;50.098;8.726;2023-05-08T13:58:05;11.30;;;8.35;;
22176;SDS011;11254;50.098;8.726;2023-05-08T14:00:33;11.63;;;8.23;;
22176;SDS011;11254;50.098;8.726;2023-05-08T14:03:01;11.95;;;8.18;;
22176;SDS011;11254;50.098;8.726;2023-05-08T14:05:30;11.20;;;8.00;;
22176;SDS011;11254;50.098;8.726;2023-05-08T14:07:59;10.63;;;7.85;;
22176;SDS011;11254;50.098;8.726;2023-05-08T14:10:28;13.30;;;7.78;;
22176;SDS011;11254;50.098;8.726;2023-05-08T14:12:56;11.02;;;8.00;;
22176;SDS011;11254;50.098;8.726;2023-05-08T14:15:24;11.07;;;7.82;;
22176;SDS011;11254;50.098;8.726;2023-05-08T14:18:02;11.30;;;8.00;;
22176;SDS011;11254;50.098;8.726;2023-05-08T14:20:31;11.27;;;7.85;;
22176;SDS011;11254;50.098;8.726;2023-05-08T14:23:01;13.20;;;8.60;;
22176;SDS011;11254;50.098;8.726;2023-05-08T14:25:29;11.57;;;7.95;;
22176;SDS011;11254;50.098;8.726;2023-05-08T14:27:57;12.15;;;8.02;;
22176;SDS011;11254;50.098;8.726;2023-05-08T14:30:26;14.90;;;9.00;;
22176;SDS011;11254;50.098;8.726;2023-05-08T14:32:54;11.02;;;7.97;;
22176;SDS011;11254;50.098;8.726;2023-05-08T14:35:23;11.15;;;7.93;;
22176;SDS011;11254;50.098;8.726;2023-05-08T14:37:51;10.38;;;7.18;;
22176;SDS011;11254;50.098;8.726;2023-05-08T14:40:21;10.45;;;7.45;;
22176;SDS011;11254;50.098;8.726;2023-05-08T14:42:50;10.60;;;7.15;;
22176;SDS011;11254;50.098;8.726;2023-05-08T14:45:18;11.15;;;7.85;;
22176;SDS011;11254;50.098;8.726;2023-05-08T14:47:47;10.07;;;7.15;;
22176;SDS011;11254;50.098;8.726;2023-05-08T14:50:15;9.70;;;7.07;;
22176;SDS011;11254;50.098;8.726;2023-05-08T14:52:44;12.50;;;7.80;;
22176;SDS011;11254;50.098;8.726;2023-05-08T14:55:12;9.98;;;6.80;;
22176;SDS011;11254;50.098;8.726;2023-05-08T14:57:47;10.27;;;7.45;;
22176;SDS011;11254;50.098;8.726;2023-05-08T15:00:16;10.25;;;6.82;;
22176;SDS011;11254;50.098;8.726;2023-05-08T15:02:45;10.48;;;6.78;;
22176;SDS011;11254;50.098;8.726;2023-05-08T15:05:14;8.75;;;6.53;;
22176;SDS011;11254;50.098;8.726;2023-05-08T15:07:46;9.35;;;6.63;;
22176;SDS011;11254;50.098;8.726;2023-05-08T15:10:15;8.55;;;6.07;;
22176;SDS011;11254;50.098;8.726;2023-05-08T15:12:43;14.18;;;6.60;;
22176;SDS011;11254;50.098;8.726;2023-05-08T15:15:13;8.95;;;6.35;;
22176;SDS011;11254;50.098;8.726;2023-05-08T15:17:42;9.48;;;6.45;;
22176;SDS011;11254;50.098;8.726;2023-05-08T15:20:11;8.45;;;6.10;;
22176;SDS011;11254;50.098;8.726;2023-05-08T15:22:39;9.77;;;5.85;;
22176;SDS011;11254;50.098;8.726;2023-05-08T15:25:09;11.20;;;6.78;;
22176;SDS011;11254;50.098;8.726;2023-05-08T15:27:38;11.13;;;7.30;;
22176;SDS011;11254;50.098;8.726;2023-05-08T15:30:08;10.38;;;6.90;;
22176;SDS011;11254;50.098;8.726;2023-05-08T15:32:37;9.07;;;6.47;;
22176;SDS011;11254;50.098;8.726;2023-05-08T15:35:08;9.50;;;7.18;;
22176;SDS011;11254;50.098;8.726;2023-05-08T15:37:38;9.75;;;6.63;;
22176;SDS011;11254;50.098;8.726;2023-05-08T15:40:06;13.63;;;7.68;;
22176;SDS011;11254;50.098;8.726;2023-05-08T15:42:35;10.68;;;7.80;;
22176;SDS011;11254;50.098;8.726;2023-05-08T15:45:03;11.25;;;7.22;;
22176;SDS011;11254;50.098;8.726;2023-05-08T15:47:32;10.43;;;7.35;;
22176;SDS011;11254;50.098;8.726;2023-05-08T15:50:04;14.27;;;7.43;;
22176;SDS011;11254;50.098;8.726;2023-05-08T15:52:33;13.32;;;7.82;;
22176;SDS011;11254;50.098;8.726;2023-05-08T15:55:02;13.60;;;7.78;;
22176;SDS011;11254;50.098;8.726;2023-05-08T15:57:30;9.85;;;7.47;;
22176;SDS011;11254;50.098;8.726;2023-05-08T15:59:59;10.85;;;7.07;;
22176;SDS011;11254;50.098;8.726;2023-05-08T16:02:30;10.27;;;6.97;;
22176;SDS011;11254;50.098;8.726;2023-05-08T16:04:59;10.75;;;7.30;;
22176;SDS011;11254;50.098;8.726;2023-05-08T16:07:29;10.75;;;6.72;;
22176;SDS011;11254;50.098;8.726;2023-05-08T16:09:59;10.43;;;7.53;;
22176;SDS011;11254;50.098;8.726;2023-05-08T16:12:27;10.95;;;7.30;;
22176;SDS011;11254;50.098;8.726;2023-05-08T16:14:56;11.55;;;7.68;;
22176;SDS011;11254;50.098;8.726;2023-05-08T16:17:24;11.05;;;7.22;;
22176;SDS011;11254;50.098;8.726;2023-05-08T16:19:52;12.85;;;7.93;;
22176;SDS011;11254;50.098;8.726;2023-05-08T16:22:21;12.38;;;7.47;;
22176;SDS011;11254;50.098;8.726;2023-05-08T16:24:52;12.98;;;7.60;;
22176;SDS011;11254;50.098;8.726;2023-05-08T16:27:20;11.23;;;7.35;;
22176;SDS011;11254;50.098;8.726;2023-05-08T16:29:49;12.32;;;7.97;;
22176;SDS011;11254;50.098;8.726;2023-05-08T16:32:17;9.52;;;6.78;;
22176;SDS011;11254;50.098;8.726;2023-05-08T16:34:46;9.93;;;7.13;;
22176;SDS011;11254;50.098;8.726;2023-05-08T16:37:14;12.70;;;7.95;;
22176;SDS011;11254;50.098;8.726;2023-05-08T16:39:42;11.50;;;7.78;;
22176;SDS011;11254;50.098;8.726;2023-05-08T16:42:12;10.10;;;6.68;;
22176;SDS011;11254;50.098;8.726;2023-05-08T16:44:40;11.40;;;7.78;;
22176;SDS011;11254;50.098;8.726;2023-05-08T16:47:09;12.48;;;8.30;;
22176;SDS011;11254;50.098;8.726;2023-05-08T16:49:37;12.95;;;8.18;;
22176;SDS011;11254;50.098;8.726;2023-05-08T16:52:06;10.98;;;7.28;;
22176;SDS011;11254;50.098;8.726;2023-05-08T16:54:35;13.05;;;7.88;;
22176;SDS011;11254;50.098;8.726;2023-05-08T16:57:03;12.05;;;8.23;;
22176;SDS011;11254;50.098;8.726;2023-05-08T16:59:33;12.50;;;7.53;;
22176;SDS011;11254;50.098;8.726;2023-05-08T17:02:02;13.35;;;8.48;;
22176;SDS011;11254;50.098;8.726;2023-05-08T17:04:30;13.40;;;8.35;;
22176;SDS011;11254;50.098;8.726;2023-05-08T17:06:59;13.00;;;8.55;;
22176;SDS011;11254;50.098;8.726;2023-05-08T17:09:30;10.85;;;7.85;;
22176;SDS011;11254;50.098;8.726;2023-05-08T17:12:00;15.23;;;8.70;;
22176;SDS011;11254;50.098;8.726;2023-05-08T17:14:28;13.90;;;8.85;;
22176;SDS011;11254;50.098;8.726;2023-05-08T17:16:58;12.35;;;8.15;;
22176;SDS011;11254;50.098;8.726;2023-05-08T17:19:27;11.25;;;7.95;;
22176;SDS011;11254;50.098;8.726;2023-05-08T17:21:55;11.65;;;7.75;;
22176;SDS011;11254;50.098;8.726;2023-05-08T17:24:25;12.35;;;8.48;;
22176;SDS011;11254;50.098;8.726;2023-05-08T17:26:53;12.70;;;8.73;;
22176;SDS011;11254;50.098;8.726;2023-05-08T17:29:22;13.43;;;8.68;;
22176;SDS011;11254;50.098;8.726;2023-05-08T17:31:51;13.90;;;9.13;;
22176;SDS011;11254;50.098;8.726;2023-05-08T17:34:20;11.15;;;7.82;;
22176;SDS011;11254;50.098;8.726;2023-05-08T17:36:49;11.77;;;8.40;;
22176;SDS011;11254;50.098;8.726;2023-05-08T17:39:20;14.13;;;9.25;;
22176;SDS011;11254;50.098;8.726;2023-05-08T17:41:48;12.95;;;8.27;;
22176;SDS011;11254;50.098;8.726;2023-05-08T17:44:17;13.23;;;8.52;;
22176;SDS011;11254;50.098;8.726;2023-05-08T17:46:45;14.23;;;8.80;;
22176;SDS011;11254;50.098;8.726;2023-05-08T17:49:14;13.55;;;8.50;;
22176;SDS011;11254;50.098;8.726;2023-05-08T17:51:46;13.55;;;9.23;;
22176;SDS011;11254;50.098;8.726;2023-05-08T17:54:14;13.40;;;8.48;;
22176;SDS011;11254;50.098;8.726;2023-05-08T17:56:43;13.98;;;9.23;;
22176;SDS011;11254;50.098;8.726;2023-05-08T17:59:12;14.95;;;9.38;;
22176;SDS011;11254;50.098;8.726;2023-05-08T18:01:40;14.93;;;9.55;;
22176;SDS011;11254;50.098;8.726;2023-05-08T18:04:09;16.73;;;8.52;;
22176;SDS011;11254;50.098;8.726;2023-05-08T18:06:37;14.05;;;8.93;;
22176;SDS011;11254;50.098;8.726;2023-05-08T18:09:07;12.05;;;8.27;;
22176;SDS011;11254;50.098;8.726;2023-05-08T18:11:35;14.80;;;9.02;;
22176;SDS011;11254;50.098;8.726;2023-05-08T18:14:03;14.32;;;8.82;;
22176;SDS011;11254;50.098;8.726;2023-05-08T18:16:32;13.63;;;8.98;;
22176;SDS011;11254;50.098;8.726;2023-05-08T18:19:00;14.35;;;9.02;;
22176;SDS011;11254;50.098;8.726;2023-05-08T18:21:29;12.52;;;8.55;;
22176;SDS011;11254;50.098;8.726;2023-05-08T18:23:57;13.52;;;8.23;;
22176;SDS011;11254;50.098;8.726;2023-05-08T18:26:27;13.02;;;8.73;;
22176;SDS011;11254;50.098;8.726;2023-05-08T18:28:56;12.25;;;8.40;;